createdAt,value
2019-04-01T00:01:20.414Z,10.30
2019-04-01T00:03:52.334Z,7.80
2019-04-01T00:06:24.047Z,8.27
2019-04-01T00:08:55.728Z,11.67
2019-04-01T00:11:27.550Z,10.17
2019-04-01T00:13:59.341Z,10.27
2019-04-01T00:16:31.099Z,10.80
2019-04-01T00:19:03.663Z,11.60
2019-04-01T00:21:35.538Z,10.00
2019-04-01T00:24:07.312Z,7.60
2019-04-01T00:26:38.975Z,8.70
2019-04-01T00:29:10.842Z,11.07
2019-04-01T00:31:42.563Z,11.07
2019-04-01T00:34:14.344Z,15.90
2019-04-01T00:36:46.142Z,13.40
2019-04-01T00:39:17.753Z,13.30
2019-04-01T00:42:00.520Z,8.90
2019-04-01T00:44:32.168Z,8.17
2019-04-01T00:47:04.042Z,9.97
2019-04-01T00:49:35.900Z,11.00
2019-04-01T00:52:07.801Z,11.37
2019-04-01T00:54:39.542Z,13.83
2019-04-01T00:57:11.444Z,19.20
2019-04-01T00:59:43.108Z,12.73
2019-04-01T01:02:14.844Z,10.30
2019-04-01T01:04:46.768Z,10.33
2019-04-01T01:07:18.485Z,8.43
2019-04-01T01:09:50.191Z,11.37
2019-04-01T01:12:22.055Z,9.23
2019-04-01T01:14:54.779Z,11.53
2019-04-01T01:17:26.521Z,13.43
2019-04-01T01:19:58.259Z,10.77
2019-04-01T01:22:30.024Z,15.23
2019-04-01T01:25:01.793Z,11.73
2019-04-01T01:27:33.883Z,10.27
2019-04-01T01:30:06.355Z,10.77
2019-04-01T01:32:38.110Z,11.30
2019-04-01T01:35:10.170Z,8.40
2019-04-01T01:37:41.828Z,8.97
2019-04-01T01:40:13.806Z,6.23
2019-04-01T01:42:45.618Z,19.20
2019-04-01T01:45:17.433Z,11.60
2019-04-01T01:47:49.255Z,8.93
2019-04-01T01:50:20.951Z,8.23
2019-04-01T01:52:52.643Z,9.50
2019-04-01T01:55:24.369Z,9.60
2019-04-01T01:57:56.639Z,16.13
2019-04-01T02:00:29.005Z,8.50
2019-04-01T02:03:00.913Z,14.60
2019-04-01T02:05:32.631Z,7.80
2019-04-01T02:08:04.424Z,14.10
2019-04-01T02:10:36.060Z,8.60
2019-04-01T02:13:07.889Z,9.23
2019-04-01T02:15:39.623Z,10.43
2019-04-01T02:18:11.337Z,11.77
2019-04-01T02:20:42.971Z,9.50
2019-04-01T02:23:14.872Z,9.33
2019-04-01T02:25:46.683Z,8.87
2019-04-01T02:28:18.590Z,9.73
2019-04-01T02:30:50.561Z,8.13
2019-04-01T02:33:22.344Z,9.20
2019-04-01T02:35:54.132Z,8.77
2019-04-01T02:38:26.017Z,9.10
2019-04-01T02:40:57.684Z,8.27
2019-04-01T02:43:29.385Z,9.47
2019-04-01T02:46:01.390Z,9.10
2019-04-01T02:48:33.316Z,10.40
2019-04-01T02:51:05.106Z,8.53
2019-04-01T02:53:37.834Z,7.13
2019-04-01T02:56:09.505Z,6.73
2019-04-01T02:58:41.265Z,7.83
2019-04-01T03:01:13.073Z,10.23
2019-04-01T03:03:44.816Z,9.93
2019-04-01T03:06:16.743Z,8.80
2019-04-01T03:08:48.439Z,7.67
2019-04-01T03:11:20.192Z,7.83
2019-04-01T03:13:51.961Z,7.43
2019-04-01T03:16:23.650Z,12.23
2019-04-01T03:18:55.550Z,5.63
2019-04-01T03:21:27.309Z,7.97
2019-04-01T03:23:59.036Z,8.60
2019-04-01T03:26:30.834Z,6.73
2019-04-01T03:29:02.729Z,9.90
2019-04-01T03:31:35.426Z,6.50
2019-04-01T03:34:07.150Z,8.60
2019-04-01T03:36:38.930Z,9.87
2019-04-01T03:39:10.626Z,6.10
2019-04-01T03:41:42.375Z,12.03
2019-04-01T03:44:14.159Z,6.77
2019-04-01T03:46:45.941Z,9.33
2019-04-01T03:49:17.622Z,9.57
2019-04-01T03:51:49.395Z,12.17
2019-04-01T03:54:21.224Z,12.43
2019-04-01T03:56:53.005Z,4.43
2019-04-01T03:59:24.832Z,10.17
2019-04-01T04:01:56.857Z,9.37
2019-04-01T04:04:28.598Z,8.00
2019-04-01T04:07:00.267Z,9.27
2019-04-01T04:09:32.041Z,10.80
2019-04-01T04:12:03.874Z,9.57
2019-04-01T04:14:35.554Z,10.17
2019-04-01T04:17:07.303Z,6.13
2019-04-01T04:19:39.098Z,9.90
2019-04-01T04:22:10.736Z,9.83
2019-04-01T04:24:42.470Z,13.63
2019-04-01T04:27:15.189Z,8.83
2019-04-01T04:29:47.001Z,7.20
2019-04-01T04:32:19.192Z,11.47
2019-04-01T04:34:50.940Z,10.83
2019-04-01T04:37:22.833Z,11.73
2019-04-01T04:39:54.642Z,11.10
2019-04-01T04:42:26.453Z,9.47
2019-04-01T04:44:58.193Z,11.73
2019-04-01T04:47:29.858Z,13.63
2019-04-01T04:50:01.765Z,10.37
2019-04-01T04:52:33.593Z,11.67
2019-04-01T04:55:05.901Z,13.87
2019-04-01T04:57:37.587Z,10.70
2019-04-01T05:00:09.685Z,10.87
2019-04-01T05:02:41.396Z,9.17
2019-04-01T05:05:13.296Z,12.13
2019-04-01T05:07:45.059Z,9.23
2019-04-01T05:10:16.883Z,12.03
2019-04-01T05:12:48.612Z,11.87
2019-04-01T05:15:20.577Z,9.93
2019-04-01T05:17:52.285Z,14.13
2019-04-01T05:20:24.203Z,12.00
2019-04-01T05:22:56.618Z,11.73
2019-04-01T05:25:31.807Z,16.00
2019-04-01T05:28:23.083Z,13.07
2019-04-01T05:30:56.434Z,12.13
2019-04-01T05:33:29.615Z,10.87
2019-04-01T05:36:02.412Z,12.00
2019-04-01T05:38:34.260Z,9.47
2019-04-01T05:41:06.750Z,11.87
2019-04-01T05:43:38.624Z,8.87
2019-04-01T05:46:10.603Z,9.20
2019-04-01T05:48:42.734Z,9.37
2019-04-01T05:51:14.744Z,6.10
2019-04-01T05:53:46.674Z,6.70
2019-04-01T05:56:18.517Z,6.43
2019-04-01T05:58:50.594Z,7.50
2019-04-01T06:01:27.886Z,10.17
2019-04-01T06:03:59.528Z,8.23
2019-04-01T06:06:31.534Z,9.23
2019-04-01T06:09:05.782Z,11.77
2019-04-01T06:11:38.100Z,9.30
2019-04-01T06:14:09.792Z,8.87
2019-04-01T06:16:41.640Z,7.67
2019-04-01T06:19:13.317Z,12.17
2019-04-01T06:21:45.198Z,7.03
2019-04-01T06:24:17.002Z,8.00
2019-04-01T06:26:48.840Z,8.60
2019-04-01T06:29:20.523Z,9.03
2019-04-01T06:31:52.364Z,9.90
2019-04-01T06:34:24.250Z,11.77
2019-04-01T06:36:56.173Z,18.97
2019-04-01T06:39:27.853Z,13.33
2019-04-01T06:41:59.820Z,12.47
2019-04-01T06:44:31.698Z,9.80
2019-04-01T06:47:03.951Z,8.70
2019-04-01T06:49:36.750Z,8.50
2019-04-01T06:52:08.717Z,6.33
2019-04-01T06:54:40.536Z,7.47
2019-04-01T06:57:12.546Z,7.07
2019-04-01T06:59:44.280Z,6.70
2019-04-01T07:02:16.256Z,7.77
2019-04-01T07:04:48.727Z,6.83
2019-04-01T07:07:20.799Z,8.83
2019-04-01T07:09:52.645Z,7.63
2019-04-01T07:12:24.418Z,8.53
2019-04-01T07:14:56.212Z,10.43
2019-04-01T07:17:28.076Z,9.10
2019-04-01T07:19:59.726Z,7.93
2019-04-01T07:22:31.711Z,7.43
2019-04-01T07:25:05.020Z,6.03
2019-04-01T07:27:37.051Z,5.80
2019-04-01T07:30:09.810Z,5.90
2019-04-01T07:32:41.908Z,4.73
2019-04-01T07:35:13.930Z,7.00
2019-04-01T07:37:45.828Z,5.97
2019-04-01T07:40:17.556Z,9.47
2019-04-01T07:42:49.523Z,6.67
2019-04-01T07:45:21.446Z,5.03
2019-04-01T07:47:53.280Z,4.03
2019-04-01T07:50:25.103Z,8.07
2019-04-01T07:52:57.175Z,6.83
2019-04-01T07:55:29.497Z,5.37
2019-04-01T07:58:01.896Z,4.03
2019-04-01T08:00:33.521Z,4.57
2019-04-01T08:03:05.435Z,6.63
2019-04-01T08:05:37.458Z,5.00
2019-04-01T08:08:09.421Z,5.33
2019-04-01T08:10:41.177Z,4.40
2019-04-01T08:13:14.089Z,6.70
2019-04-01T08:15:45.894Z,6.87
2019-04-01T08:18:18.646Z,3.53
2019-04-01T08:20:50.348Z,5.10
2019-04-01T08:23:22.093Z,5.90
2019-04-01T08:25:54.247Z,3.83
2019-04-01T08:28:26.535Z,4.67
2019-04-01T08:30:58.291Z,5.03
2019-04-01T08:33:30.154Z,7.90
2019-04-01T08:36:02.103Z,11.73
2019-04-01T08:38:33.794Z,8.13
2019-04-01T08:41:05.692Z,4.67
2019-04-01T08:43:37.638Z,4.63
2019-04-01T08:46:09.460Z,5.73
2019-04-01T08:48:41.254Z,5.67
2019-04-01T08:51:23.680Z,5.90
2019-04-01T08:53:55.391Z,5.77
2019-04-01T08:56:28.153Z,2.70
2019-04-01T08:58:59.963Z,4.83
2019-04-01T09:01:35.450Z,4.63
2019-04-01T09:04:05.349Z,5.30
2019-04-01T09:06:37.083Z,4.07
2019-04-01T09:09:09.111Z,5.07
2019-04-01T09:11:41.275Z,3.47
2019-04-01T09:14:13.012Z,2.87
2019-04-01T09:16:45.096Z,5.37
2019-04-01T09:19:18.084Z,5.13
2019-04-01T09:21:49.934Z,3.03
2019-04-01T09:24:21.797Z,2.13
2019-04-01T09:26:53.673Z,2.97
2019-04-01T09:29:25.363Z,3.13
2019-04-01T09:31:57.057Z,5.20
2019-04-01T09:34:28.955Z,2.00
2019-04-01T09:37:00.804Z,5.23
2019-04-01T09:39:32.558Z,5.47
2019-04-01T09:42:04.306Z,2.87
2019-04-01T09:44:37.211Z,7.07
2019-04-01T09:47:09.012Z,5.20
2019-04-01T09:49:40.906Z,3.30
2019-04-01T09:52:12.839Z,3.23
2019-04-01T09:54:44.790Z,1.83
2019-04-01T09:57:18.369Z,4.17
2019-04-01T09:59:50.130Z,4.40
2019-04-01T10:02:31.634Z,3.77
2019-04-01T10:04:55.277Z,3.17
2019-04-01T10:07:27.182Z,4.83
2019-04-01T10:09:59.116Z,5.53
2019-04-01T10:12:30.806Z,2.53
2019-04-01T10:15:02.840Z,4.17
2019-04-01T10:17:35.838Z,2.37
2019-04-01T10:20:08.912Z,3.50
2019-04-01T10:22:40.776Z,3.20
2019-04-01T10:25:12.555Z,3.17
2019-04-01T10:27:44.335Z,5.53
2019-04-01T10:30:16.722Z,3.87
2019-04-01T10:32:48.441Z,2.73
2019-04-01T10:35:20.483Z,3.70
2019-04-01T10:37:53.257Z,7.03
2019-04-01T10:40:25.044Z,3.43
2019-04-01T10:42:57.320Z,2.53
2019-04-01T10:45:29.120Z,4.20
2019-04-01T10:48:00.819Z,2.50
2019-04-01T10:50:32.619Z,3.23
2019-04-01T10:53:04.243Z,2.90
2019-04-01T10:55:36.441Z,3.77
2019-04-01T10:58:08.266Z,4.70
2019-04-01T11:00:40.204Z,3.97
2019-04-01T11:03:11.946Z,3.63
2019-04-01T11:05:43.835Z,3.63
2019-04-01T11:08:15.789Z,4.83
2019-04-01T11:10:47.484Z,3.57
2019-04-01T11:13:19.361Z,3.93
2019-04-01T11:15:51.181Z,3.13
2019-04-01T11:18:23.076Z,2.43
2019-04-01T11:20:56.879Z,1.50
2019-04-01T11:23:28.693Z,2.13
2019-04-01T11:26:00.503Z,2.47
2019-04-01T11:28:32.148Z,2.60
2019-04-01T11:31:04.046Z,2.10
2019-04-01T11:33:35.748Z,2.27
2019-04-01T11:36:07.422Z,1.10
2019-04-01T11:38:39.343Z,2.03
2019-04-01T11:41:11.252Z,2.03
2019-04-01T11:43:44.050Z,1.73
2019-04-01T11:46:16.288Z,2.23
2019-04-01T11:48:47.980Z,1.93
2019-04-01T11:51:31.901Z,1.80
2019-04-01T11:53:53.114Z,2.83
2019-04-01T11:56:26.693Z,2.67
2019-04-01T11:58:58.641Z,2.80
2019-04-01T12:01:30.554Z,1.97
2019-04-01T12:04:02.214Z,4.90
2019-04-01T12:06:34.048Z,4.50
2019-04-01T12:09:07.115Z,2.70
2019-04-01T12:11:38.918Z,2.37
2019-04-01T12:14:10.526Z,5.30
2019-04-01T12:16:42.422Z,2.13
2019-04-01T12:19:14.314Z,1.73
2019-04-01T12:21:46.195Z,1.57
2019-04-01T12:24:18.154Z,2.00
2019-04-01T12:26:50.100Z,3.17
2019-04-01T12:29:21.959Z,2.53
2019-04-01T12:31:53.660Z,1.57
2019-04-01T12:34:25.639Z,1.47
2019-04-01T12:36:57.352Z,1.67
2019-04-01T12:39:29.071Z,2.23
2019-04-01T12:42:00.959Z,2.40
2019-04-01T12:44:32.697Z,1.90
2019-04-01T12:47:04.575Z,1.77
2019-04-01T12:49:36.225Z,6.00
2019-04-01T12:52:08.108Z,1.70
2019-04-01T12:54:39.747Z,2.03
2019-04-01T12:57:11.523Z,2.60
2019-04-01T12:59:45.848Z,1.73
2019-04-01T13:02:18.261Z,3.50
2019-04-01T13:04:51.470Z,1.93
2019-04-01T13:07:23.483Z,4.53
2019-04-01T13:09:55.287Z,2.27
2019-04-01T13:12:27.619Z,3.53
2019-04-01T13:14:59.618Z,3.87
2019-04-01T13:17:31.366Z,1.97
2019-04-01T13:20:03.174Z,3.83
2019-04-01T13:22:34.964Z,2.53
2019-04-01T13:25:07.038Z,3.40
2019-04-01T13:27:38.829Z,2.57
2019-04-01T13:30:10.792Z,2.33
2019-04-01T13:32:42.660Z,4.73
2019-04-01T13:35:14.523Z,2.57
2019-04-01T13:37:46.987Z,4.07
2019-04-01T13:40:19.639Z,3.23
2019-04-01T13:42:51.506Z,3.67
2019-04-01T13:45:23.152Z,2.47
2019-04-01T13:47:54.796Z,1.50
2019-04-01T13:50:26.866Z,2.27
2019-04-01T13:52:58.609Z,2.63
2019-04-01T13:55:30.478Z,1.73
2019-04-01T13:58:02.300Z,4.90
2019-04-01T14:00:34.271Z,2.83
2019-04-01T14:03:06.476Z,2.90
2019-04-01T14:05:38.352Z,1.50
2019-04-01T14:08:10.117Z,1.30
2019-04-01T14:10:42.257Z,2.97
2019-04-01T14:13:14.115Z,3.13
2019-04-01T14:15:45.979Z,4.03
2019-04-01T14:18:17.674Z,2.40
2019-04-01T14:20:49.594Z,2.30
2019-04-01T14:23:23.418Z,3.80
2019-04-01T14:25:54.564Z,5.30
2019-04-01T14:28:26.238Z,2.27
2019-04-01T14:30:58.090Z,2.00
2019-04-01T14:33:32.592Z,1.50
2019-04-01T14:36:04.745Z,1.67
2019-04-01T14:38:36.658Z,4.53
2019-04-01T14:41:08.707Z,2.23
2019-04-01T14:43:40.635Z,4.60
2019-04-01T14:46:12.421Z,1.67
2019-04-01T14:48:44.206Z,1.47
2019-04-01T14:51:16.259Z,2.43
2019-04-01T14:53:47.996Z,3.63
2019-04-01T14:56:19.809Z,2.70
2019-04-01T14:58:52.905Z,1.60
2019-04-01T15:01:24.735Z,1.87
2019-04-01T15:03:56.600Z,1.60
2019-04-01T15:06:28.386Z,2.17
2019-04-01T15:09:00.157Z,1.40
2019-04-01T15:11:31.885Z,1.67
2019-04-01T15:14:03.760Z,1.83
2019-04-01T15:16:35.472Z,3.17
2019-04-01T15:19:07.395Z,2.70
2019-04-01T15:21:39.266Z,4.67
2019-04-01T15:24:11.063Z,4.47
2019-04-01T15:26:42.771Z,3.47
2019-04-01T15:29:14.594Z,2.53
2019-04-01T15:31:46.466Z,2.03
2019-04-01T15:34:19.365Z,3.20
2019-04-01T15:36:51.206Z,4.77
2019-04-01T15:39:23.020Z,2.57
2019-04-01T15:41:54.898Z,2.50
2019-04-01T15:44:29.314Z,2.93
2019-04-01T15:47:00.083Z,3.43
2019-04-01T15:49:32.045Z,3.47
2019-04-01T15:52:03.796Z,3.87
2019-04-01T15:54:35.499Z,5.67
2019-04-01T15:57:07.167Z,2.30
2019-04-01T15:59:39.066Z,1.70
2019-04-01T16:02:11.053Z,3.43
2019-04-01T16:04:42.716Z,2.93
2019-04-01T16:07:14.423Z,5.43
2019-04-01T16:09:46.142Z,7.10
2019-04-01T16:12:17.880Z,2.90
2019-04-01T16:14:49.551Z,2.10
2019-04-01T16:17:21.443Z,3.90
2019-04-01T16:19:53.357Z,3.57
2019-04-01T16:22:25.328Z,3.57
2019-04-01T16:24:57.003Z,4.30
2019-04-01T16:27:28.873Z,2.73
2019-04-01T16:30:00.819Z,4.33
2019-04-01T16:32:33.822Z,3.00
2019-04-01T16:35:06.125Z,1.63
2019-04-01T16:37:37.778Z,3.63
2019-04-01T16:40:09.911Z,3.37
2019-04-01T16:42:41.653Z,1.67
2019-04-01T16:45:14.838Z,3.57
2019-04-01T16:47:48.444Z,4.30
2019-04-01T16:50:20.299Z,6.97
2019-04-01T16:52:52.789Z,4.90
2019-04-01T16:55:24.959Z,3.80
2019-04-01T16:57:57.079Z,3.03
2019-04-01T17:00:29.420Z,6.93
2019-04-01T17:03:01.716Z,4.53
2019-04-01T17:05:35.181Z,5.67
2019-04-01T17:08:07.402Z,5.93
2019-04-01T17:10:39.558Z,5.47
2019-04-01T17:13:11.758Z,5.93
2019-04-01T17:15:43.921Z,5.27
2019-04-01T17:18:15.995Z,6.53
2019-04-01T17:20:47.993Z,7.00
2019-04-01T17:23:20.101Z,6.63
2019-04-01T17:25:52.290Z,6.93
2019-04-01T17:28:24.441Z,7.67
2019-04-01T17:30:56.641Z,6.07
2019-04-01T17:33:28.643Z,8.70
2019-04-01T17:36:00.613Z,5.80
2019-04-01T17:38:32.566Z,5.23
2019-04-01T17:41:04.884Z,8.00
2019-04-01T17:43:37.264Z,5.90
2019-04-01T17:46:09.589Z,6.17
2019-04-01T17:48:41.806Z,6.67
2019-04-01T17:51:13.774Z,7.40
2019-04-01T17:53:46.026Z,6.20
2019-04-01T17:56:18.477Z,9.40
2019-04-01T17:58:51.030Z,8.50
2019-04-01T18:01:23.702Z,10.77
2019-04-01T18:03:55.975Z,12.50
2019-04-01T18:06:28.290Z,13.70
2019-04-01T18:09:00.747Z,13.90
2019-04-01T18:11:33.885Z,11.60
2019-04-01T18:14:06.297Z,13.20
2019-04-01T18:16:38.447Z,16.60
2019-04-01T18:19:10.653Z,15.37
2019-04-01T18:21:42.687Z,15.70
2019-04-01T18:24:14.666Z,13.97
2019-04-01T18:26:46.785Z,13.50
2019-04-01T18:29:18.921Z,17.20
2019-04-01T18:32:02.392Z,17.77
2019-04-01T18:34:35.143Z,14.83
2019-04-01T18:37:07.295Z,13.63
2019-04-01T18:39:47.908Z,18.10
2019-04-01T18:42:13.198Z,15.93
2019-04-01T18:44:45.434Z,18.17
2019-04-01T18:47:17.627Z,19.83
2019-04-01T18:49:49.986Z,20.17
2019-04-01T18:52:21.946Z,20.17
2019-04-01T18:54:53.884Z,16.97
2019-04-01T18:57:27.198Z,15.57
2019-04-01T18:59:59.404Z,15.80
2019-04-01T19:02:32.794Z,26.83
2019-04-01T19:05:05.228Z,17.37
2019-04-01T19:07:37.405Z,16.53
2019-04-01T19:10:11.298Z,19.27
2019-04-01T19:12:43.460Z,18.10
2019-04-01T19:15:15.901Z,18.10
2019-04-01T19:17:48.057Z,24.97
2019-04-01T19:20:20.350Z,24.40
2019-04-01T19:22:52.533Z,17.17
2019-04-01T19:25:25.776Z,15.93
2019-04-01T19:27:59.395Z,13.23
2019-04-01T19:30:31.733Z,17.67
2019-04-01T19:33:06.589Z,13.00
2019-04-01T19:35:37.854Z,10.93
2019-04-01T19:38:10.873Z,11.53
2019-04-01T19:40:43.406Z,11.87
2019-04-01T19:43:16.464Z,13.97
2019-04-01T19:45:50.659Z,15.20
2019-04-01T19:48:22.610Z,21.27
2019-04-01T19:50:54.834Z,25.77
2019-04-01T19:53:26.975Z,22.03
2019-04-01T19:55:58.990Z,25.70
2019-04-01T19:58:31.471Z,23.83
2019-04-01T20:01:03.543Z,27.07
2019-04-01T20:03:35.739Z,21.70
2019-04-01T20:06:07.774Z,24.90
2019-04-01T20:08:40.062Z,31.80
2019-04-01T20:11:12.157Z,33.87
2019-04-01T20:13:44.491Z,29.30
2019-04-01T20:16:16.754Z,31.57
2019-04-01T20:18:48.793Z,30.80
2019-04-01T20:21:21.993Z,30.70
2019-04-01T20:23:54.964Z,30.73
2019-04-01T20:26:27.333Z,29.17
2019-04-01T20:28:59.971Z,29.17
2019-04-01T20:31:32.231Z,27.33
2019-04-01T20:34:04.537Z,28.97
2019-04-01T20:36:36.793Z,30.00
2019-04-01T20:39:09.695Z,30.57
2019-04-01T20:41:41.762Z,33.60
2019-04-01T20:44:13.836Z,33.40
2019-04-01T20:46:46.188Z,38.47
2019-04-01T20:49:18.412Z,38.47
2019-04-01T20:51:50.658Z,35.23
2019-04-01T20:54:23.041Z,27.93
2019-04-01T20:56:54.992Z,29.27
2019-04-01T20:59:27.221Z,36.07
2019-04-01T21:01:59.451Z,35.00
2019-04-01T21:04:31.730Z,33.80
2019-04-01T21:07:04.036Z,30.10
2019-04-01T21:09:36.174Z,30.47
2019-04-01T21:12:08.699Z,36.50
2019-04-01T21:14:41.200Z,28.23
2019-04-01T21:17:13.372Z,33.30
2019-04-01T21:19:45.339Z,28.70
2019-04-01T21:22:17.261Z,30.57
2019-04-01T21:24:49.267Z,33.63
2019-04-01T21:27:21.409Z,35.80
2019-04-01T21:29:53.609Z,37.57
2019-04-01T21:32:25.734Z,33.10
2019-04-01T21:34:57.816Z,31.93
2019-04-01T21:37:29.933Z,34.60
2019-04-01T21:40:02.313Z,36.00
2019-04-01T21:42:34.305Z,34.20
2019-04-01T21:45:08.074Z,36.97
2019-04-01T21:47:41.136Z,35.23
2019-04-01T21:50:13.588Z,34.07
2019-04-01T21:52:45.677Z,33.43
2019-04-01T21:55:17.869Z,40.97
2019-04-01T21:57:51.132Z,36.47
2019-04-01T22:00:39.536Z,35.73
2019-04-01T22:03:13.272Z,34.33
2019-04-01T22:05:45.598Z,31.63
2019-04-01T22:08:17.632Z,33.60
2019-04-01T22:10:49.869Z,28.27
2019-04-01T22:13:21.995Z,34.07
2019-04-01T22:15:53.985Z,24.70
2019-04-01T22:18:26.206Z,26.70
2019-04-01T22:20:58.462Z,25.23
2019-04-01T22:23:31.573Z,31.30
2019-04-01T22:26:03.664Z,29.37
2019-04-01T22:28:35.959Z,25.37
2019-04-01T22:31:08.181Z,29.60
2019-04-01T22:33:40.624Z,27.03
2019-04-01T22:36:13.032Z,24.87
2019-04-01T22:38:45.259Z,27.57
2019-04-01T22:41:17.468Z,28.60
2019-04-01T22:43:49.467Z,25.03
2019-04-01T22:46:21.904Z,27.10
2019-04-01T22:48:54.042Z,23.63
2019-04-01T22:51:26.232Z,21.87
2019-04-01T22:53:58.404Z,25.47
2019-04-01T22:56:30.711Z,23.87
2019-04-01T22:59:02.762Z,22.60
2019-04-01T23:01:34.898Z,23.10
2019-04-01T23:04:07.070Z,23.47
2019-04-01T23:06:39.369Z,23.63
2019-04-01T23:09:11.538Z,25.20
2019-04-01T23:11:43.644Z,24.07
2019-04-01T23:14:17.094Z,26.13
2019-04-01T23:16:49.574Z,19.33
2019-04-01T23:19:21.600Z,21.47
2019-04-01T23:21:53.684Z,26.60
2019-04-01T23:24:26.015Z,23.20
2019-04-01T23:26:58.050Z,21.03
2019-04-01T23:29:30.326Z,20.80
2019-04-01T23:32:02.614Z,22.93
2019-04-01T23:34:34.545Z,20.67
2019-04-01T23:37:06.529Z,22.43
2019-04-01T23:39:38.585Z,25.43
2019-04-01T23:42:10.614Z,18.83
2019-04-01T23:44:42.952Z,23.33
2019-04-01T23:47:16.164Z,20.63
2019-04-01T23:49:48.378Z,21.20
2019-04-01T23:52:20.374Z,23.13
2019-04-01T23:54:52.311Z,22.70
2019-04-01T23:57:25.133Z,21.50
2019-04-01T23:59:57.572Z,20.73
